»·PEaware :: N373EB KMHV-KBFL

N373EB :: KMHV-KBFL

FLIGHT INFORMATION

Flight Status: Arrived
Operator: Privately registered:
United States
More flights under this callsign
Pilot: Peder R. (40111)
Aircraft: BEECH AIRCRAFT DEBONAIR BONANZA
(BE33)
More flights by this aircraft type
Origin: KMHV Mojave
United States
Destination: KBFL Meadows
United States
More flights between these airports :: More routes between these airports
Route: JERID5 JERID V197 EHF
File this flight plan on PilotEdge
Remarks:
Altitude:
(Current/Filed)
8,000ft
Speed:
(Current/Filed)
163kts
Departed: 15-Jan-23 03:14 PM
Arrived: 15-Jan-23 04:03 PM
Distance/Time
Traveled:
49nm/0:49
Distance/Time
To Go:
Arrived

Flight Plot

Page will automatically refresh every two minutes.

Flight plan parsing failed; only flown route is shown


Map Options




Map Legend


Flown Route
Filed Route
Departure Airport
Arrival Airport
Navaid (VOR, NDB)
Fix

Horizontal Profiles

Position Reports

Time Latitude Longitude Heading Altitude Ground
Speed
15-Jan-23 14:57 35.057565 -118.147851 271 2740ft 0kts
15-Jan-23 14:58 35.054760 -118.145386 134 2730ft 29kts
15-Jan-23 14:59 35.048235 -118.137489 135 2698ft 32kts
15-Jan-23 15:00 35.044140 -118.132066 75 2680ft 0kts
15-Jan-23 15:01 35.044140 -118.132066 75 2680ft 0kts
15-Jan-23 15:02 35.044140 -118.132066 75 2680ft 0kts
15-Jan-23 15:03 35.044140 -118.132066 75 2680ft 0kts
15-Jan-23 15:04 35.044140 -118.132066 75 2680ft 0kts
15-Jan-23 15:05 35.044140 -118.132066 75 2680ft 0kts
15-Jan-23 15:06 35.044140 -118.132066 75 2680ft 0kts
15-Jan-23 15:07 35.044140 -118.132066 75 2680ft 0kts
15-Jan-23 15:08 35.044140 -118.132066 75 2680ft 0kts
15-Jan-23 15:09 35.044140 -118.132066 75 2680ft 0kts
15-Jan-23 15:10 35.044140 -118.132066 75 2680ft 0kts
15-Jan-23 15:11 35.044258 -118.131815 48 2679ft 0kts
15-Jan-23 15:12 35.045572 -118.131874 314 2681ft 22kts
15-Jan-23 15:13 35.060604 -118.150714 307 3224ft 91kts
15-Jan-23 15:14 35.080396 -118.172635 313 4026ft 101kts
15-Jan-23 15:15 35.068185 -118.195604 203 4850ft 112kts
15-Jan-23 15:16 35.041064 -118.215584 218 5618ft 115kts
15-Jan-23 15:17 35.015381 -118.239942 222 6354ft 119kts
15-Jan-23 15:18 34.988705 -118.265341 226 7010ft 123kts
15-Jan-23 15:19 34.961756 -118.292224 221 7610ft 129kts
15-Jan-23 15:20 34.938634 -118.317650 209 8458ft 107kts
15-Jan-23 15:21 34.914509 -118.340110 205 9004ft 109kts
15-Jan-23 15:22 34.889700 -118.362517 208 9549ft 112kts
15-Jan-23 15:23 34.893358 -118.402417 299 9884ft 155kts
15-Jan-23 15:24 34.922139 -118.444614 312 10103ft 163kts
15-Jan-23 15:25 34.952107 -118.486186 318 10029ft 165kts
15-Jan-23 15:26 34.984527 -118.523430 320 10025ft 159kts
15-Jan-23 15:27 35.013457 -118.564755 318 9958ft 159kts
15-Jan-23 15:28 35.044550 -118.601883 320 9997ft 152kts
15-Jan-23 15:29 35.076163 -118.636098 324 10022ft 151kts
15-Jan-23 15:30 35.107271 -118.671533 322 10022ft 153kts
15-Jan-23 15:31 35.139855 -118.705119 318 9608ft 156kts
15-Jan-23 15:32 35.170481 -118.741263 319 9022ft 154kts
15-Jan-23 15:33 35.202333 -118.776710 321 8332ft 154kts
15-Jan-23 15:34 35.234589 -118.811109 324 7652ft 153kts
15-Jan-23 15:35 35.265021 -118.847224 320 6981ft 152kts
15-Jan-23 15:36 35.295711 -118.882527 318 6320ft 151kts
15-Jan-23 15:37 35.326610 -118.917156 318 5686ft 149kts
15-Jan-23 15:38 35.356812 -118.951297 321 5151ft 144kts
15-Jan-23 15:39 35.384460 -118.982173 317 5030ft 123kts
15-Jan-23 15:40 35.408539 -119.009399 316 4990ft 117kts
15-Jan-23 15:41 35.431745 -119.036561 318 4999ft 116kts
15-Jan-23 15:42 35.455498 -119.062777 318 5017ft 115kts
15-Jan-23 15:43 35.478851 -119.089127 317 5025ft 114kts
15-Jan-23 15:44 35.500010 -119.119007 309 4905ft 114kts
15-Jan-23 15:45 35.520457 -119.149076 313 4643ft 114kts
15-Jan-23 15:46 35.542008 -119.177993 315 4392ft 114kts
15-Jan-23 15:47 35.563080 -119.207265 313 4142ft 113kts
15-Jan-23 15:48 35.584562 -119.235817 316 3826ft 113kts
15-Jan-23 15:49 35.600086 -119.269114 298 3507ft 114kts
15-Jan-23 15:50 35.614271 -119.303549 300 3461ft 113kts
15-Jan-23 15:51 35.635274 -119.320799 48 3457ft 108kts
15-Jan-23 15:52 35.625025 -119.291811 133 3458ft 106kts
15-Jan-23 15:53 35.605719 -119.265062 131 3431ft 105kts
15-Jan-23 15:54 35.585268 -119.239634 132 3295ft 105kts
15-Jan-23 15:55 35.562548 -119.212066 133 2673ft 126kts
15-Jan-23 15:56 35.539514 -119.184156 134 2498ft 103kts
15-Jan-23 15:57 35.519045 -119.159600 133 2500ft 103kts
15-Jan-23 15:58 35.498940 -119.135389 132 2016ft 99kts
15-Jan-23 15:59 35.479107 -119.111717 129 1459ft 98kts
15-Jan-23 16:00 35.461205 -119.089152 134 952ft 87kts
15-Jan-23 16:01 35.445743 -119.070565 134 526ft 72kts
15-Jan-23 16:02 35.436833 -119.059799 136 490ft 24kts
15-Jan-23 16:03 35.436494 -119.057928 48 492ft 0kts
15-Jan-23 16:04 35.436509 -119.057907 48 492ft 3kts
15-Jan-23 16:05 35.434149 -119.054277 135 492ft 17kts
15-Jan-23 16:06 35.430771 -119.050217 134 492ft 18kts
15-Jan-23 16:07 35.427160 -119.045854 134 484ft 15kts
15-Jan-23 16:08 35.425622 -119.044578 310 479ft 0kts
15-Jan-23 16:09 35.425622 -119.044578 310 479ft 0kts
15-Jan-23 16:10 35.425622 -119.044578 310 479ft 0kts

Navigation Log

Ident Type
Flight plan parsing failed, navigation log unavailable